KCBG

Details ICAO KCBG
Name CAMBRIDGE MUNI
Region United States
Timezone America/Chicago (UTC-5.0)
Plans Departing 2
Arriving 1
Stats Elevation 945 ft / 288 m (AMSL)
Location 45.557494° -93.264185°
Runways 1
Magnetic Variation 0.115° E
Sunrise 2018-05-24 10:34:39 UTC / 2018-05-24 05:34:39 Local
Sunset 2018-05-25 01:48:04 UTC / 2018-05-24 20:48:04 Local
Advertisement - Login to hide

Runways

ID Width Length Bearing (true) Bearing (mag) Surface Threshold Offset Overrun Length
16 75 ft / 23 m 4,001 ft / 1,220 m 162.56° 162.44° Asphalt 0 ft / 0 m 0 ft / 0 m
34 75 ft / 23 m 4,001 ft / 1,220 m 342.57° 342.45° Asphalt 0 ft / 0 m 0 ft / 0 m

Map

Weather


0- 5 10 15 20 25 30 35+ Temperature / ° C

Clouds and Precipitation
Forecast for 2018-05-25 00:00 UTC. Updated an hour ago

Ground ~20,000 ft ~40,000 ft Winds

METAR

KCBG 250015Z AUTO 21006KT 10SM CLR 31/18 A2986 RMK AO2 LTG DSNT S AND SW

TAF

Not found

Frequencies

Recorded 121.12 MHz AWOS 3
Unicom 122.80 MHz CTAF/UNICOM
Warning: Do not use this data for real-world aviation or navigation. No guarantee of current accuracy is given.